Terminal Aerodrome Forecast
Issued by NWS

Home | Current Version | Previous Version | Graphics & Text | Print | Product List | Glossary On
Versions: 1 2 3 4 5 6 7 8 9 10 11 12 13 14 15 16 17 18 19 20 21 22 23 24 25 26 27 28 29 30 31 32 33 34 35 36 37 38 39 40 41 42 43 44 45 46 47 48 49 50
000
FTUS43 KLOT 250532
TAFGYY
TAF
KGYY 250532Z 2506/2606 28010KT P6SM BKN015 OVC025
     FM250700 29013G20KT 4SM BR VCSH OVC015
      TEMPO 2507/2508 1 1/2SM -RASN BR
     FM251000 29015G23KT 2SM -SN BR OVC015
     FM251300 28018G26KT P6SM OVC020
     FM251700 29018G26KT P6SM OVC020
     FM252300 29017G25KT P6SM BKN035
     FM260500 27008KT P6SM SCT100=

USA.gov is the U.S. government's official web portal to all federal, state and local government web resources and services.